Time;durP1;ratioP1;P1;durP2;ratioP2;P2;SDS_P1;SDS_P2;PMS_P1;PMS_P2;Temp;Humidity;BMP_temperature;BMP_pressure;BME280_temperature;BME280_humidity;BME280_pressure;Samples;Min_cycle;Max_cycle;Signal;HPM_P1;HPM_P2
2023/07/05 00:00:21;;;;;;;18.43;5.40;;;;;;;23.44;55.40;100946.44;5012604;28;20876;-75
2023/07/05 00:02:50;;;;;;;18.92;4.95;;;;;;;23.34;55.84;100940.88;5012291;28;20411;-74
2023/07/05 00:05:15;;;;;;;16.50;5.37;;;;;;;23.17;56.60;100950.91;5012318;28;20418;-74
2023/07/05 00:07:41;;;;;;;13.85;5.18;;;;;;;23.16;56.35;100943.88;5011673;28;20376;-75
2023/07/05 00:10:07;;;;;;;16.63;5.13;;;;;;;23.40;55.67;100950.69;5012479;28;20369;-74
2023/07/05 00:12:32;;;;;;;19.35;5.35;;;;;;;23.48;55.21;100950.28;5012877;28;20384;-73
2023/07/05 00:14:58;;;;;;;14.57;5.20;;;;;;;23.50;55.36;100960.00;5012764;28;20376;-74
2023/07/05 00:17:23;;;;;;;17.07;5.20;;;;;;;23.41;55.82;100959.66;5012704;28;20402;-74
2023/07/05 00:19:50;;;;;;;15.85;5.25;;;;;;;23.35;56.00;100964.13;5012685;28;20414;-75
2023/07/05 00:22:16;;;;;;;18.70;5.40;;;;;;;23.39;55.77;100970.72;5012667;28;20376;-74
2023/07/05 00:24:41;;;;;;;16.33;5.15;;;;;;;23.36;55.83;100968.50;5012565;28;20503;-75
2023/07/05 00:27:07;;;;;;;14.70;4.87;;;;;;;23.35;55.85;100971.44;5011822;28;20852;-74
2023/07/05 00:29:32;;;;;;;20.77;5.63;;;;;;;23.41;55.85;100959.66;5012520;28;20451;-74
2023/07/05 00:31:58;;;;;;;18.98;5.53;;;;;;;23.38;55.77;100960.94;5012423;28;20447;-74
2023/07/05 00:34:23;;;;;;;18.30;5.38;;;;;;;23.32;55.95;100959.25;5012315;28;20986;-74
2023/07/05 00:36:49;;;;;;;16.53;5.23;;;;;;;23.37;56.12;100977.41;5011994;28;20368;-74
2023/07/05 00:39:14;;;;;;;16.10;5.30;;;;;;;23.33;56.06;100970.88;5012247;28;20381;-74
2023/07/05 00:41:40;;;;;;;17.57;5.40;;;;;;;23.41;55.80;100973.97;5012305;28;20388;-74
2023/07/05 00:44:05;;;;;;;17.87;5.30;;;;;;;23.48;55.66;100960.28;4995044;28;20388;-74
2023/07/05 00:46:33;;;;;;;17.55;5.47;;;;;;;23.57;55.17;100958.78;5012194;28;20746;-74
2023/07/05 00:49:05;;;;;;;18.20;5.57;;;;;;;23.63;55.12;100962.38;5012165;28;20477;-73
2023/07/05 00:51:42;;;;;;;20.25;6.15;;;;;;;23.60;55.13;100952.03;5011805;28;20821;-73
2023/07/05 00:54:08;;;;;;;20.38;5.93;;;;;;;23.62;55.36;100958.00;5011991;28;20820;-74
2023/07/05 00:56:40;;;;;;;18.58;5.65;;;;;;;23.69;55.20;100952.41;5012106;28;20384;-74
2023/07/05 00:59:09;;;;;;;21.08;6.18;;;;;;;23.80;54.68;100952.31;5011929;28;20387;-74
2023/07/05 01:01:34;;;;;;;26.95;6.53;;;;;;;23.92;54.48;100962.19;5012526;28;20442;-73
2023/07/05 01:04:00;;;;;;;21.70;6.27;;;;;;;23.94;54.31;100951.94;4997201;28;20487;-74
2023/07/05 01:06:27;;;;;;;22.60;5.97;;;;;;;24.00;54.25;100956.31;4992838;28;20393;-74
2023/07/05 01:08:53;;;;;;;22.15;5.72;;;;;;;24.02;54.21;100960.44;4992616;28;20391;-73
2023/07/05 01:11:51;;;;;;;15.82;5.63;;;;;;;23.95;54.73;100953.56;4992202;28;20378;-75
2023/07/05 01:14:22;;;;;;;17.20;6.18;;;;;;;23.88;54.88;100942.94;4992139;28;20739;-74
2023/07/05 01:17:32;;;;;;;18.50;5.88;;;;;;;23.80;55.07;100946.09;4992194;28;20455;-74
2023/07/05 01:20:10;;;;;;;16.17;5.80;;;;;;;23.78;54.95;100951.72;4931936;29;20522;-74
2023/07/05 01:22:59;;;;;;;16.83;5.63;;;;;;;23.87;54.59;100956.72;4932416;29;20492;-75
2023/07/05 01:25:42;;;;;;;21.48;5.97;;;;;;;23.95;54.36;100950.84;4968419;28;20858;-75
2023/07/05 01:28:32;;;;;;;19.60;6.05;;;;;;;23.85;54.91;100948.84;4991850;28;20429;-74
2023/07/05 01:31:06;;;;;;;20.15;6.15;;;;;;;23.70;55.64;100944.03;4992046;28;20389;-74
2023/07/05 01:33:54;;;;;;;21.15;6.35;;;;;;;23.71;55.53;100940.25;4991854;28;20488;-75
2023/07/05 01:36:21;;;;;;;21.95;6.25;;;;;;;23.83;55.20;100934.75;4991745;28;20385;-74
2023/07/05 01:38:46;;;;;;;18.75;6.03;;;;;;;23.82;55.56;100938.53;4991757;28;20386;-75
2023/07/05 01:41:12;;;;;;;16.83;6.00;;;;;;;23.87;55.04;100922.34;4991152;28;20412;-75
2023/07/05 01:43:41;;;;;;;18.93;6.07;;;;;;;23.94;55.27;100927.56;4991118;28;20824;-75
2023/07/05 01:46:18;;;;;;;16.52;5.72;;;;;;;23.93;55.40;100934.03;4991069;28;20532;-75
2023/07/05 01:49:07;;;;;;;19.20;6.28;;;;;;;23.92;55.48;100932.41;4990932;28;20479;-73
2023/07/05 01:51:39;;;;;;;22.10;6.45;;;;;;;23.91;55.36;100923.47;4980342;28;20517;-74
2023/07/05 01:54:23;;;;;;;19.48;6.43;;;;;;;24.04;54.88;100923.06;4991095;28;20374;-74
2023/07/05 01:56:55;;;;;;;20.35;6.53;;;;;;;24.21;54.48;100947.34;4973568;28;20394;-75
2023/07/05 01:59:26;;;;;;;22.70;6.75;;;;;;;24.23;54.36;100945.19;4990723;28;20842;-74
2023/07/05 02:01:54;;;;;;;19.73;6.35;;;;;;;24.16;54.53;100938.34;4991055;28;20905;-75
2023/07/05 02:04:22;;;;;;;18.65;6.40;;;;;;;24.14;54.84;100938.59;4991322;28;20381;-74
2023/07/05 02:06:50;;;;;;;22.25;6.45;;;;;;;24.16;54.75;100935.66;4991361;28;20386;-75
2023/07/05 02:09:15;;;;;;;21.80;6.70;;;;;;;24.18;54.80;100934.34;4991279;28;20758;-74
2023/07/05 02:11:41;;;;;;;18.63;6.57;;;;;;;24.09;55.41;100943.16;4991244;28;20378;-75
2023/07/05 02:14:06;;;;;;;22.20;6.60;;;;;;;24.01;55.66;100945.25;4991396;28;20404;-75
2023/07/05 02:16:32;;;;;;;19.63;6.47;;;;;;;23.94;55.92;100946.53;4991202;28;20451;-74
2023/07/05 02:18:58;;;;;;;22.52;6.30;;;;;;;23.82;56.28;100943.94;4990805;28;20405;-74
2023/07/05 02:21:23;;;;;;;20.27;6.10;;;;;;;23.78;56.62;100938.19;4991098;28;20406;-75
2023/07/05 02:23:48;;;;;;;20.23;6.37;;;;;;;23.79;56.43;100934.41;4991142;28;20378;-74
2023/07/05 02:26:14;;;;;;;22.30;6.65;;;;;;;23.84;56.58;100947.19;4991065;28;20904;-74
2023/07/05 02:28:40;;;;;;;17.90;6.20;;;;;;;23.73;56.95;100932.69;4990999;28;20381;-75
2023/07/05 02:31:09;;;;;;;19.60;6.60;;;;;;;23.75;56.90;100927.88;4991114;28;21068;-75
2023/07/05 02:33:34;;;;;;;18.10;6.28;;;;;;;23.79;56.88;100931.69;4990758;28;20862;-75
2023/07/05 02:36:07;;;;;;;20.27;6.10;;;;;;;23.70;57.22;100941.34;4990968;28;20386;-74
2023/07/05 02:38:33;;;;;;;18.17;6.43;;;;;;;23.68;57.14;100935.38;4977269;28;20954;-74
2023/07/05 02:40:58;;;;;;;21.85;7.50;;;;;;;23.82;56.99;100938.53;4971368;28;20415;-75
2023/07/05 02:43:24;;;;;;;21.03;6.70;;;;;;;23.87;56.75;100940.47;4969814;28;20820;-74
2023/07/05 02:45:49;;;;;;;19.60;6.17;;;;;;;23.79;57.14;100933.59;4970822;28;20787;-75
2023/07/05 02:48:14;;;;;;;18.17;5.90;;;;;;;23.71;57.30;100929.44;4970285;28;20407;-75
2023/07/05 02:50:40;;;;;;;20.80;6.43;;;;;;;23.62;58.02;100934.50;4973450;28;20376;-74
2023/07/05 02:53:06;;;;;;;16.70;6.28;;;;;;;23.59;57.94;100934.97;4975368;28;20973;-75
2023/07/05 02:55:31;;;;;;;18.35;6.32;;;;;;;23.32;58.98;100937.59;4975304;28;20394;-75
2023/07/05 02:57:57;;;;;;;19.13;6.23;;;;;;;23.32;59.08;100934.06;4975154;28;20422;-75
2023/07/05 03:00:22;;;;;;;18.43;6.47;;;;;;;23.26;59.19;100931.31;4975346;28;20485;-75
2023/07/05 03:02:48;;;;;;;18.95;6.45;;;;;;;23.27;59.36;100942.94;4974884;28;20960;-75
2023/07/05 03:05:13;;;;;;;22.85;6.68;;;;;;;23.36;59.17;100936.03;4975319;28;20449;-74
2023/07/05 03:07:39;;;;;;;20.80;6.17;;;;;;;23.56;58.28;100932.78;4975145;28;20445;-74
2023/07/05 03:10:05;;;;;;;17.97;6.77;;;;;;;23.68;58.00;100938.06;4975051;28;20394;-74
2023/07/05 03:12:31;;;;;;;20.95;6.82;;;;;;;23.74;57.47;100937.06;4974990;28;20466;-74
2023/07/05 03:14:56;;;;;;;15.00;6.23;;;;;;;23.80;57.40;100944.19;4975029;28;20725;-74
2023/07/05 03:17:22;;;;;;;17.60;6.27;;;;;;;23.83;57.26;100945.59;4974833;28;20387;-75
2023/07/05 03:19:47;;;;;;;16.87;6.10;;;;;;;23.91;56.86;100930.78;4974871;28;20422;-76
2023/07/05 03:22:14;;;;;;;23.10;6.65;;;;;;;24.01;56.96;100937.13;4974843;28;20463;-74
2023/07/05 03:24:40;;;;;;;16.88;6.45;;;;;;;23.93;57.00;100923.22;4975388;28;20372;-75
2023/07/05 03:27:05;;;;;;;15.40;5.90;;;;;;;23.85;57.49;100925.28;4974937;28;20376;-75
2023/07/05 03:29:31;;;;;;;16.97;6.47;;;;;;;23.79;57.55;100931.69;4974885;28;20387;-77
2023/07/05 03:31:58;;;;;;;18.93;6.43;;;;;;;23.89;57.50;100941.84;4980039;28;20556;-74
2023/07/05 03:34:23;;;;;;;23.55;6.47;;;;;;;23.84;57.48;100945.34;4975885;28;20861;-75
2023/07/05 03:36:49;;;;;;;14.13;6.13;;;;;;;23.76;58.05;100934.91;4992481;28;20512;-76
2023/07/05 03:39:16;;;;;;;19.77;6.87;;;;;;;23.66;58.19;100941.03;4991896;28;20393;-75
2023/07/05 03:41:42;;;;;;;17.58;6.63;;;;;;;23.78;57.76;100931.94;4991259;28;20561;-74
2023/07/05 03:44:07;;;;;;;21.50;6.40;;;;;;;23.82;57.86;100938.53;4991788;28;20524;-75
2023/07/05 03:46:33;;;;;;;18.27;6.23;;;;;;;23.83;57.82;100940.97;4992232;28;20881;-75
2023/07/05 03:48:58;;;;;;;16.53;6.33;;;;;;;23.70;58.35;100937.78;4993071;28;20886;-74
2023/07/05 03:51:25;;;;;;;21.25;6.68;;;;;;;23.74;58.29;100933.53;4993062;28;20461;-75
2023/07/05 03:53:52;;;;;;;18.42;6.57;;;;;;;23.79;58.08;100936.31;4993973;28;20393;-75
2023/07/05 03:56:18;;;;;;;17.60;6.68;;;;;;;23.93;57.83;100940.28;4997122;28;20409;-75
2023/07/05 03:58:44;;;;;;;17.88;7.05;;;;;;;23.82;58.15;100936.66;5002722;28;20378;-75
2023/07/05 04:01:30;;;;;;;20.05;6.72;;;;;;;23.88;57.99;100929.41;4989576;28;20420;-74
2023/07/05 04:03:58;;;;;;;21.45;7.38;;;;;;;23.87;58.08;100935.06;4996772;28;20420;-74
2023/07/05 04:06:27;;;;;;;19.58;6.70;;;;;;;23.92;58.19;100944.06;4983378;28;20417;-74
2023/07/05 04:08:53;;;;;;;18.08;6.40;;;;;;;24.07;57.56;100942.59;5001649;28;20384;-74
2023/07/05 04:11:19;;;;;;;18.53;6.90;;;;;;;24.11;57.48;100949.13;4997847;28;20918;-74
2023/07/05 04:13:46;;;;;;;18.45;6.82;;;;;;;24.14;57.45;100940.50;5000798;28;20789;-75
2023/07/05 04:16:14;;;;;;;18.90;6.77;;;;;;;24.09;57.36;100938.53;4996025;28;20755;-76
2023/07/05 04:18:43;;;;;;;19.73;6.68;;;;;;;24.10;57.40;100948.31;5000054;28;20474;-76
2023/07/05 04:21:10;;;;;;;19.70;7.00;;;;;;;24.04;57.67;100955.56;4995159;28;20421;-75
2023/07/05 04:23:36;;;;;;;23.27;7.38;;;;;;;24.11;57.73;100949.97;4998043;28;20882;-74
2023/07/05 04:26:05;;;;;;;22.00;7.20;;;;;;;24.33;57.14;100958.03;5000499;28;20394;-74
2023/07/05 04:28:32;;;;;;;20.20;6.78;;;;;;;24.45;56.58;100963.28;5000694;28;20395;-75
2023/07/05 04:30:58;;;;;;;19.70;7.30;;;;;;;24.64;56.17;100963.75;5001542;28;20437;-75
2023/07/05 04:33:24;;;;;;;19.90;7.05;;;;;;;24.67;56.09;100957.84;5000979;28;20394;-76
2023/07/05 04:35:51;;;;;;;19.88;7.00;;;;;;;24.72;56.00;100967.88;5002753;28;20432;-75
2023/07/05 04:38:17;;;;;;;17.38;6.60;;;;;;;24.65;56.17;100964.56;4999525;28;20476;-78
2023/07/05 04:40:42;;;;;;;21.33;7.07;;;;;;;24.60;56.52;100965.38;4999450;28;20904;-75
2023/07/05 04:43:08;;;;;;;18.83;6.90;;;;;;;24.63;56.27;100962.13;5001213;28;20496;-74
2023/07/05 04:45:34;;;;;;;20.30;7.70;;;;;;;24.68;56.18;100956.75;5003216;28;20392;-75
2023/07/05 04:48:00;;;;;;;18.17;6.80;;;;;;;24.87;55.66;100959.88;5000703;28;20471;-75
2023/07/05 04:50:25;;;;;;;27.95;8.30;;;;;;;24.96;55.41;100961.03;5000239;28;20414;-75
2023/07/05 04:52:51;;;;;;;25.00;7.50;;;;;;;25.05;55.02;100968.66;5001630;28;20406;-75
2023/07/05 04:55:16;;;;;;;21.30;7.37;;;;;;;25.12;54.90;100964.69;4999565;28;20460;-75
2023/07/05 04:57:42;;;;;;;24.75;7.30;;;;;;;25.27;54.19;100969.41;5002240;28;20411;-75
2023/07/05 05:00:11;;;;;;;21.90;7.40;;;;;;;25.44;53.96;100976.56;4994804;28;20460;-76
2023/07/05 05:02:38;;;;;;;20.37;7.10;;;;;;;25.33;53.85;100967.53;4992049;28;20484;-75
2023/07/05 05:05:07;;;;;;;24.10;8.10;;;;;;;25.37;53.70;100971.34;4992189;28;20386;-75
2023/07/05 05:07:33;;;;;;;23.38;7.25;;;;;;;25.42;53.71;100976.81;4991681;28;20409;-75
2023/07/05 05:09:59;;;;;;;21.20;7.10;;;;;;;25.52;53.27;100979.59;4991787;28;20717;-74
2023/07/05 05:12:25;;;;;;;17.70;6.53;;;;;;;25.53;53.37;100977.69;4990084;28;20440;-75
2023/07/05 05:14:50;;;;;;;12.32;6.35;;;;;;;25.47;52.79;100965.19;4991867;28;20796;-75
2023/07/05 05:17:16;;;;;;;14.70;6.80;;;;;;;25.37;53.22;100965.91;4991980;28;20973;-74
2023/07/05 05:19:41;;;;;;;16.20;6.73;;;;;;;25.40;53.37;100962.69;4974345;28;20948;-74
2023/07/05 05:22:08;;;;;;;16.70;6.70;;;;;;;25.46;53.10;100961.66;4990932;28;20393;-74
2023/07/05 05:24:34;;;;;;;15.93;6.80;;;;;;;25.72;52.94;100964.47;4991292;28;20401;-75
2023/07/05 05:26:59;;;;;;;16.73;6.90;;;;;;;25.89;52.24;100956.09;4991275;28;20479;-76
2023/07/05 05:29:25;;;;;;;14.68;6.65;;;;;;;26.13;52.05;100961.94;4991927;28;20441;-75
2023/07/05 05:31:50;;;;;;;19.00;7.07;;;;;;;26.27;51.75;100956.78;4991182;28;20390;-75
2023/07/05 05:34:16;;;;;;;17.20;7.00;;;;;;;26.50;51.37;100969.84;4991503;28;20397;-75
2023/07/05 05:36:41;;;;;;;21.00;8.90;;;;;;;26.57;51.12;100968.78;4991821;28;20398;-76
2023/07/05 05:39:07;;;;;;;17.90;6.40;;;;;;;26.59;50.81;100963.88;4991724;28;20417;-75
2023/07/05 05:41:33;;;;;;;21.50;9.03;;;;;;;26.54;50.95;100970.13;4989842;28;20437;-75
2023/07/05 05:43:59;;;;;;;14.88;6.75;;;;;;;26.61;50.99;100975.34;4991092;28;20393;-75
2023/07/05 05:46:24;;;;;;;19.13;6.63;;;;;;;26.64;50.80;100982.97;4990880;28;20454;-76
2023/07/05 05:48:50;;;;;;;13.32;6.28;;;;;;;26.63;51.05;100979.44;4991463;28;20390;-78
2023/07/05 05:51:16;;;;;;;15.43;6.53;;;;;;;26.67;50.64;100985.13;4991758;28;20390;-76
2023/07/05 05:53:41;;;;;;;15.10;7.13;;;;;;;26.58;50.85;100990.25;4991839;28;20436;-75
2023/07/05 05:56:07;;;;;;;18.08;7.13;;;;;;;26.67;51.15;100994.09;4991652;28;20956;-75
2023/07/05 05:58:32;;;;;;;14.77;6.70;;;;;;;26.87;50.55;100982.41;4991347;28;20471;-75
2023/07/05 06:01:02;;;;;;;17.67;7.57;;;;;;;27.00;50.40;100980.22;4991613;28;20409;-76
2023/07/05 06:03:29;;;;;;;16.27;6.57;;;;;;;26.94;50.62;100987.59;4990861;28;20513;-74
2023/07/05 06:05:55;;;;;;;15.17;7.10;;;;;;;27.05;50.13;100988.38;4973507;28;20926;-75
2023/07/05 06:08:20;;;;;;;12.02;6.68;;;;;;;26.87;50.65;100987.03;4991360;28;20389;-74
2023/07/05 06:10:46;;;;;;;14.27;7.17;;;;;;;26.92;50.70;100997.09;4990454;28;20475;-74
2023/07/05 06:13:13;;;;;;;12.75;6.82;;;;;;;27.02;50.21;100981.56;4991500;28;20779;-74
2023/07/05 06:15:38;;;;;;;16.92;7.32;;;;;;;27.13;49.90;100984.28;4991735;28;20378;-75
2023/07/05 06:18:04;;;;;;;16.60;7.40;;;;;;;27.42;49.72;100984.53;4990951;28;20884;-75
2023/07/05 06:20:33;;;;;;;12.53;6.77;;;;;;;27.50;49.61;100983.16;4991665;28;20417;-75
2023/07/05 06:22:59;;;;;;;17.13;7.45;;;;;;;27.37;49.32;100979.09;4991207;28;20468;-74
2023/07/05 06:25:25;;;;;;;23.10;7.93;;;;;;;27.31;49.65;100981.00;4989416;28;20397;-75
2023/07/05 06:27:51;;;;;;;20.17;7.78;;;;;;;27.44;49.10;100982.34;4992325;28;20381;-74
2023/07/05 06:30:16;;;;;;;16.93;7.30;;;;;;;27.51;49.33;100982.06;4991810;28;20461;-75
2023/07/05 06:32:43;;;;;;;19.67;7.85;;;;;;;27.67;48.91;100977.38;4974701;28;20385;-75
2023/07/05 06:35:09;;;;;;;18.58;7.60;;;;;;;27.75;48.50;100977.59;4991997;28;20386;-74
2023/07/05 06:37:34;;;;;;;16.37;7.30;;;;;;;27.46;48.87;100972.00;4992055;28;20390;-75
2023/07/05 06:40:00;;;;;;;13.50;6.82;;;;;;;27.17;49.00;100975.31;4990638;28;20928;-74
2023/07/05 06:42:25;;;;;;;16.10;7.22;;;;;;;27.23;49.21;100985.09;4989576;28;20467;-74
2023/07/05 06:44:51;;;;;;;15.90;7.23;;;;;;;27.39;49.41;100985.91;4991453;28;20428;-75
2023/07/05 06:47:16;;;;;;;31.20;9.03;;;;;;;27.50;49.02;100973.06;4991294;28;20455;-75
2023/07/05 06:49:42;;;;;;;11.13;6.67;;;;;;;27.87;48.57;100979.19;4995224;28;20386;-75
2023/07/05 06:52:07;;;;;;;16.00;7.57;;;;;;;28.00;48.06;100968.53;4989730;28;20845;-74
2023/07/05 06:54:33;;;;;;;14.93;7.28;;;;;;;28.18;47.74;100961.59;4988875;28;20408;-75
2023/07/05 06:57:00;;;;;;;11.90;7.23;;;;;;;28.02;47.46;100962.81;4989585;28;20405;-75
2023/07/05 06:59:25;;;;;;;16.30;7.50;;;;;;;27.87;47.81;100957.38;4989682;28;20401;-75
2023/07/05 07:01:51;;;;;;;13.57;6.43;;;;;;;28.32;47.32;100960.97;4988156;28;20417;-75
2023/07/05 07:04:17;;;;;;;15.00;7.10;;;;;;;28.74;46.39;100968.59;4989985;28;20402;-76
2023/07/05 07:06:42;;;;;;;11.55;6.32;;;;;;;28.85;45.52;100957.59;4988475;28;20743;-75
2023/07/05 07:09:10;;;;;;;13.82;6.10;;;;;;;28.82;45.21;100953.50;4989019;28;21043;-75
2023/07/05 07:11:36;;;;;;;15.48;6.78;;;;;;;29.36;44.42;100954.34;4989136;28;20386;-79
2023/07/05 07:14:01;;;;;;;17.20;7.30;;;;;;;29.33;43.62;100957.66;4989345;28;20394;-75
2023/07/05 07:16:26;;;;;;;17.53;6.90;;;;;;;28.88;44.46;100954.25;4988322;28;20390;-74
2023/07/05 07:18:52;;;;;;;18.70;7.33;;;;;;;28.82;44.84;100953.50;4987907;28;20405;-74
2023/07/05 07:21:19;;;;;;;20.90;8.27;;;;;;;28.65;45.32;100956.66;4985299;28;20807;-74
2023/07/05 07:23:48;;;;;;;16.80;7.60;;;;;;;29.02;45.12;100973.50;4988452;28;20389;-73
2023/07/05 07:26:19;;;;;;;15.03;7.17;;;;;;;29.06;44.53;100974.56;4972529;28;20432;-74
2023/07/05 07:28:46;;;;;;;13.27;7.10;;;;;;;28.91;45.05;100976.34;4990530;28;20716;-74
2023/07/05 07:31:13;;;;;;;14.90;7.45;;;;;;;29.08;45.14;100972.34;4991097;28;20432;-74
2023/07/05 07:33:39;;;;;;;19.10;7.57;;;;;;;29.45;44.56;100962.72;4990906;28;20464;-74
2023/07/05 07:36:13;;;;;;;15.15;7.10;;;;;;;29.43;44.27;100959.47;4991116;28;20472;-74
2023/07/05 07:38:40;;;;;;;17.48;7.70;;;;;;;29.45;44.22;100963.53;4994665;28;20426;-73
2023/07/05 07:41:35;;;;;;;14.85;7.00;;;;;;;29.27;44.40;100961.56;4994211;28;20409;-73
2023/07/05 07:44:07;;;;;;;14.85;7.07;;;;;;;29.32;44.56;100962.31;4992386;28;20425;-74
2023/07/05 07:46:33;;;;;;;15.88;6.75;;;;;;;29.36;43.94;100968.81;4994070;28;20469;-75
2023/07/05 07:49:00;;;;;;;19.45;7.10;;;;;;;29.64;43.78;100958.13;4994278;28;20385;-73
2023/07/05 07:51:32;;;;;;;14.75;7.10;;;;;;;29.92;43.30;100971.97;4976817;28;20942;-73
2023/07/05 07:53:58;;;;;;;11.18;6.63;;;;;;;29.84;43.52;100970.72;4996174;28;20388;-74
2023/07/05 07:56:25;;;;;;;17.35;7.15;;;;;;;29.66;43.67;100971.50;4994609;28;20829;-75
2023/07/05 07:58:53;;;;;;;15.45;6.85;;;;;;;29.48;43.85;100973.88;4993967;28;20863;-77
2023/07/05 08:01:28;;;;;;;16.23;6.80;;;;;;;29.45;43.80;100979.91;4995374;28;20774;-78
2023/07/05 08:03:55;;;;;;;21.60;7.55;;;;;;;29.60;43.98;100969.91;4994920;28;20405;-76
2023/07/05 08:06:28;;;;;;;16.35;7.22;;;;;;;29.68;44.39;100975.53;4994608;28;20453;-77
2023/07/05 08:08:54;;;;;;;13.75;6.97;;;;;;;29.72;44.14;100965.63;4977800;28;20472;-75
2023/07/05 08:11:19;;;;;;;12.93;6.75;;;;;;;29.74;43.95;100966.19;4994467;28;20378;-75
2023/07/05 08:13:45;;;;;;;9.10;7.00;;;;;;;29.74;43.68;100968.09;4994495;28;20390;-75
2023/07/05 08:16:10;;;;;;;7.47;6.30;;;;;;;29.77;44.02;100964.00;4995590;28;20416;-74
2023/07/05 08:18:36;;;;;;;11.60;7.03;;;;;;;29.84;44.02;100969.91;4995293;28;20445;-77
2023/07/05 08:21:02;;;;;;;16.33;7.63;;;;;;;29.91;43.96;100973.09;4995003;28;20412;-76
2023/07/05 08:23:28;;;;;;;18.60;8.23;;;;;;;29.94;43.80;100967.03;4977872;28;20378;-76
2023/07/05 08:25:56;;;;;;;17.92;7.40;;;;;;;30.01;44.18;100974.88;4993226;28;20397;-75
2023/07/05 08:28:25;;;;;;;17.42;7.63;;;;;;;30.11;43.90;100969.28;4993398;28;20779;-77
2023/07/05 08:30:56;;;;;;;22.15;7.90;;;;;;;30.09;43.45;100966.81;4993824;28;20389;-76
2023/07/05 08:33:29;;;;;;;19.30;7.65;;;;;;;29.99;43.51;100971.63;4993442;28;20929;-75
2023/07/05 08:36:04;;;;;;;15.68;7.57;;;;;;;30.15;43.43;100969.50;4993082;28;20393;-76
2023/07/05 08:38:30;;;;;;;15.57;7.22;;;;;;;30.25;43.33;100953.75;4993453;28;20385;-75
2023/07/05 08:41:21;;;;;;;19.48;7.88;;;;;;;30.36;43.38;100956.34;4993278;28;20472;-75
2023/07/05 08:43:52;;;;;;;18.02;7.43;;;;;;;30.38;43.01;100963.16;4940664;28;20488;-76
2023/07/05 08:46:19;;;;;;;14.67;6.90;;;;;;;30.31;42.83;100960.75;4993306;28;20469;-76
2023/07/05 08:48:47;;;;;;;17.20;7.07;;;;;;;30.35;43.23;100955.53;4992505;28;20695;-76
2023/07/05 08:51:15;;;;;;;17.70;7.18;;;;;;;30.47;43.33;100964.09;4993010;28;20389;-75
2023/07/05 08:54:04;;;;;;;10.95;6.65;;;;;;;30.53;43.19;100966.75;4994061;28;20523;-75
2023/07/05 08:56:38;;;;;;;14.55;6.63;;;;;;;30.56;43.20;100960.66;4993253;28;20393;-76
2023/07/05 08:59:14;;;;;;;16.97;7.13;;;;;;;30.66;43.10;100965.97;4993233;28;21618;-76
2023/07/05 09:01:42;;;;;;;16.88;7.43;;;;;;;30.80;43.14;100957.81;4993688;28;20406;-75
2023/07/05 09:04:27;;;;;;;12.23;6.78;;;;;;;30.96;42.70;100959.19;4993214;28;20821;-76
2023/07/05 09:07:05;;;;;;;16.57;6.83;;;;;;;31.14;42.03;100952.00;4992913;28;20431;-76
2023/07/05 09:09:36;;;;;;;17.33;7.28;;;;;;;31.23;42.36;100949.38;4975447;28;20390;-76
2023/07/05 09:12:06;;;;;;;12.90;6.53;;;;;;;31.53;41.98;100947.97;4992908;28;20377;-76
2023/07/05 09:14:58;;;;;;;14.20;6.85;;;;;;;31.75;41.84;100940.94;4992114;28;21285;-76
2023/07/05 09:17:46;;;;;;;14.80;7.00;;;;;;;32.01;41.49;100938.44;4993226;28;20377;-76
2023/07/05 09:20:19;;;;;;;23.60;7.80;;;;;;;32.14;40.94;100936.78;4992957;28;20405;-74
2023/07/05 09:22:47;;;;;;;14.52;6.65;;;;;;;32.16;40.65;100927.16;4993021;28;20405;-75
2023/07/05 09:25:17;;;;;;;13.52;6.55;;;;;;;32.33;40.46;100922.91;4975781;28;20394;-75
2023/07/05 09:27:49;;;;;;;13.63;6.15;;;;;;;32.36;40.30;100923.09;4993177;28;20382;-76
2023/07/05 09:30:25;;;;;;;15.18;6.50;;;;;;;32.37;39.90;100921.16;4992853;28;20382;-76
2023/07/05 09:33:10;;;;;;;11.75;6.28;;;;;;;32.33;40.30;100912.72;4992897;28;20386;-77
2023/07/05 09:35:40;;;;;;;14.20;6.63;;;;;;;32.36;40.14;100911.31;4993338;28;20485;-75
2023/07/05 09:38:18;;;;;;;14.95;6.80;;;;;;;32.60;39.70;100904.69;4992430;28;20870;-76
2023/07/05 09:40:52;;;;;;;13.25;6.40;;;;;;;32.74;39.32;100906.22;4975328;28;20421;-77
2023/07/05 09:43:28;;;;;;;15.90;6.40;;;;;;;32.73;39.42;100904.59;4993021;28;20385;-76
2023/07/05 09:45:54;;;;;;;17.53;7.03;;;;;;;32.95;38.70;100900.16;4975658;28;20378;-75
2023/07/05 09:48:19;;;;;;;13.02;6.20;;;;;;;33.00;38.40;100900.03;4975685;28;20386;-76
2023/07/05 09:50:50;;;;;;;14.82;6.30;;;;;;;33.22;38.50;100901.91;4992790;28;20381;-76
2023/07/05 09:53:24;;;;;;;15.68;6.15;;;;;;;33.29;38.29;100899.50;4993259;28;20390;-76
2023/07/05 09:56:11;;;;;;;17.05;6.50;;;;;;;33.50;37.98;100901.66;4993832;28;20381;-76
2023/07/05 09:58:38;;;;;;;12.55;5.78;;;;;;;33.53;37.86;100893.59;4993562;28;20817;-77
2023/07/05 10:01:06;;;;;;;17.70;6.50;;;;;;;33.59;38.06;100890.69;4991864;28;20406;-76
2023/07/05 10:03:38;;;;;;;15.23;6.10;;;;;;;33.64;37.34;100902.31;4975779;28;20439;-76
2023/07/05 10:06:10;;;;;;;17.30;6.88;;;;;;;33.69;37.39;100898.63;4992353;28;20484;-75
2023/07/05 10:08:45;;;;;;;14.90;5.78;;;;;;;33.86;37.65;100897.84;4992170;28;20484;-76
2023/07/05 10:11:34;;;;;;;12.63;5.78;;;;;;;33.95;36.97;100889.59;4975471;28;20381;-75
2023/07/05 10:14:06;;;;;;;8.25;5.30;;;;;;;34.06;37.09;100899.13;4975837;28;20456;-76
2023/07/05 10:16:54;;;;;;;18.45;6.57;;;;;;;34.17;36.51;100886.66;4992710;28;20378;-76
2023/07/05 10:19:30;;;;;;;19.73;6.47;;;;;;;34.08;36.54;100889.41;4992124;28;20393;-74
2023/07/05 10:22:13;;;;;;;13.43;6.00;;;;;;;34.00;36.35;100884.72;4994112;28;20493;-75
2023/07/05 10:24:45;;;;;;;15.32;6.00;;;;;;;33.96;36.48;100892.03;4992343;28;20732;-75
2023/07/05 10:27:36;;;;;;;25.65;7.40;;;;;;;33.86;36.30;100890.41;4992667;28;20396;-76
2023/07/05 10:30:03;;;;;;;13.67;5.77;;;;;;;33.84;36.77;100894.63;4992574;28;20784;-76
2023/07/05 10:32:32;;;;;;;19.03;6.33;;;;;;;33.95;36.63;100895.91;4992831;28;20912;-76
2023/07/05 10:34:59;;;;;;;13.88;5.90;;;;;;;34.02;36.29;100887.16;4992849;28;20401;-77
2023/07/05 10:37:38;;;;;;;13.52;5.85;;;;;;;34.02;36.23;100901.72;4992153;28;20393;-75
2023/07/05 10:40:08;;;;;;;16.58;6.35;;;;;;;33.92;36.42;100890.22;4992369;28;20448;-77
2023/07/05 10:42:36;;;;;;;16.15;6.18;;;;;;;33.95;36.58;100882.16;4993531;28;20479;-75
2023/07/05 10:45:03;;;;;;;22.83;6.82;;;;;;;34.02;36.28;100889.91;4991442;28;20472;-77
2023/07/05 10:47:31;;;;;;;12.25;5.20;;;;;;;34.06;35.83;100888.91;4974927;28;20389;-75
2023/07/05 10:50:04;;;;;;;13.93;5.85;;;;;;;33.97;35.65;100885.38;4991758;28;20393;-76
2023/07/05 10:52:34;;;;;;;17.85;5.82;;;;;;;33.88;35.67;100879.88;4991553;28;20862;-78
2023/07/05 10:55:14;;;;;;;7.95;4.65;;;;;;;33.93;35.37;100878.91;4992740;28;20385;-76
2023/07/05 10:57:52;;;;;;;11.63;5.05;;;;;;;33.85;35.09;100868.72;4992061;28;20920;-77
2023/07/05 11:00:51;;;;;;;22.07;6.20;;;;;;;33.92;35.19;100865.47;4989764;28;20420;-75
2023/07/05 11:03:38;;;;;;;16.53;5.20;;;;;;;34.08;35.03;100874.84;4967026;28;20897;-76
2023/07/05 11:06:04;;;;;;;14.33;5.33;;;;;;;34.21;34.80;100868.38;4991945;28;20385;-76
2023/07/05 11:08:39;;;;;;;13.70;5.47;;;;;;;34.20;34.51;100874.22;4991518;28;20424;-77
2023/07/05 11:11:40;;;;;;;12.52;5.53;;;;;;;34.13;34.78;100860.13;4990045;28;20386;-75
2023/07/05 11:14:12;;;;;;;14.80;5.30;;;;;;;34.03;35.26;100853.84;4986212;28;20402;-76
2023/07/05 11:16:41;;;;;;;15.52;5.50;;;;;;;34.00;34.84;100837.97;4994336;28;20447;-76
2023/07/05 11:19:12;;;;;;;14.00;5.75;;;;;;;34.00;35.09;100839.94;4994711;28;20559;-76
2023/07/05 11:21:44;;;;;;;16.30;5.60;;;;;;;34.05;35.22;100834.22;4995180;28;20409;-76
2023/07/05 11:24:33;;;;;;;16.38;5.75;;;;;;;33.90;35.09;100827.31;4993954;28;20516;-75
2023/07/05 11:27:00;;;;;;;16.75;5.82;;;;;;;33.93;35.51;100834.91;4994443;28;20398;-75